createdAt,value
2022-08-02T00:00:31.571Z,0.00
2022-08-02T00:01:31.669Z,0.00
2022-08-02T00:02:31.565Z,0.00
2022-08-02T00:03:31.558Z,0.00
2022-08-02T00:04:31.558Z,0.00
2022-08-02T00:05:31.565Z,0.00
2022-08-02T00:06:31.547Z,0.00
2022-08-02T00:07:31.553Z,0.00
2022-08-02T00:08:31.540Z,0.00
2022-08-02T00:09:31.536Z,0.00
2022-08-02T00:10:31.534Z,0.00
2022-08-02T00:11:31.530Z,0.00
2022-08-02T00:12:31.521Z,0.00
2022-08-02T00:13:31.516Z,0.00
2022-08-02T00:14:31.515Z,0.00
2022-08-02T00:15:31.507Z,0.00
2022-08-02T00:16:37.987Z,0.00
2022-08-02T00:17:31.501Z,0.00
2022-08-02T00:18:31.498Z,0.00
2022-08-02T00:19:31.492Z,0.00
2022-08-02T00:20:31.504Z,0.00
2022-08-02T00:21:31.482Z,0.00
2022-08-02T00:22:31.482Z,0.00
2022-08-02T00:23:31.476Z,0.00
2022-08-02T00:24:31.493Z,0.00
2022-08-02T00:25:31.466Z,0.00
2022-08-02T00:26:31.465Z,0.00
2022-08-02T00:27:31.460Z,0.00
2022-08-02T00:28:31.454Z,0.00
2022-08-02T00:29:31.450Z,0.00
2022-08-02T00:30:31.447Z,0.00
2022-08-02T00:31:31.445Z,0.00
2022-08-02T00:32:31.437Z,0.00
2022-08-02T00:34:05.673Z,0.00
2022-08-02T00:34:35.010Z,0.00
2022-08-02T00:35:31.425Z,0.00
2022-08-02T00:36:31.421Z,0.00
2022-08-02T00:37:31.416Z,0.00
2022-08-02T00:38:31.411Z,0.00
2022-08-02T00:39:34.665Z,0.00
2022-08-02T00:40:31.419Z,0.00
2022-08-02T00:41:31.400Z,0.00
2022-08-02T00:42:31.395Z,0.00
2022-08-02T00:43:31.398Z,0.00
2022-08-02T00:44:31.384Z,0.00
2022-08-02T00:46:02.229Z,0.00
2022-08-02T00:46:31.375Z,0.00
2022-08-02T00:47:31.472Z,0.00
2022-08-02T00:48:31.366Z,0.00
2022-08-02T00:49:31.435Z,0.00
2022-08-02T00:50:31.357Z,0.00
2022-08-02T00:51:31.355Z,0.00
2022-08-02T00:52:31.449Z,0.00
2022-08-02T00:53:31.346Z,0.00
2022-08-02T00:54:31.342Z,0.00
2022-08-02T00:55:31.571Z,0.00
2022-08-02T00:56:31.331Z,0.00
2022-08-02T00:57:31.377Z,0.00
2022-08-02T00:58:31.321Z,0.00
2022-08-02T00:59:31.319Z,0.00
2022-08-02T01:00:31.317Z,0.00
2022-08-02T01:01:31.340Z,0.00
2022-08-02T01:02:31.354Z,0.00
2022-08-02T01:03:31.301Z,0.00
2022-08-02T01:04:32.403Z,0.00
2022-08-02T01:05:39.029Z,0.00
2022-08-02T01:06:31.286Z,0.00
2022-08-02T01:07:31.282Z,0.00
2022-08-02T01:08:31.779Z,0.00
2022-08-02T01:09:31.276Z,0.00
2022-08-02T01:10:31.268Z,0.00
2022-08-02T01:11:31.264Z,0.00
2022-08-02T01:12:31.260Z,0.00
2022-08-02T01:13:31.256Z,0.00
2022-08-02T01:14:31.247Z,0.00
2022-08-02T01:15:35.934Z,0.00
2022-08-02T01:16:31.240Z,0.00
2022-08-02T01:17:31.236Z,0.00
2022-08-02T01:18:31.231Z,0.00
2022-08-02T01:19:31.228Z,0.00
2022-08-02T01:20:31.221Z,0.00
2022-08-02T01:21:31.220Z,0.00
2022-08-02T01:22:59.403Z,0.00
2022-08-02T01:23:31.209Z,0.00
2022-08-02T01:24:31.202Z,0.00
2022-08-02T01:25:31.200Z,0.00
2022-08-02T01:26:31.193Z,0.00
2022-08-02T01:27:31.190Z,0.00
2022-08-02T01:28:31.183Z,0.00
2022-08-02T01:29:31.178Z,0.00
2022-08-02T01:30:31.173Z,0.00
2022-08-02T01:31:31.170Z,0.00
2022-08-02T01:32:31.164Z,0.00
2022-08-02T01:33:31.161Z,0.00
2022-08-02T01:34:31.155Z,0.00
2022-08-02T01:35:50.705Z,0.00
2022-08-02T01:36:31.145Z,0.00
2022-08-02T01:37:31.141Z,0.00
2022-08-02T01:38:31.134Z,0.00
2022-08-02T01:39:32.495Z,0.00
2022-08-02T01:40:31.126Z,0.00
2022-08-02T01:41:31.122Z,0.00
2022-08-02T01:42:31.117Z,0.00
2022-08-02T01:43:31.112Z,0.00
2022-08-02T01:44:31.104Z,0.00
2022-08-02T01:45:31.101Z,0.00
2022-08-02T01:46:31.094Z,0.00
2022-08-02T01:47:31.094Z,0.00
2022-08-02T01:48:31.085Z,0.00
2022-08-02T01:49:31.225Z,0.00
2022-08-02T01:50:31.076Z,0.00
2022-08-02T01:51:34.562Z,0.00
2022-08-02T01:52:31.068Z,0.00
2022-08-02T01:53:31.063Z,0.00
2022-08-02T01:54:31.054Z,0.00
2022-08-02T01:55:35.322Z,0.00
2022-08-02T01:56:31.046Z,0.00
2022-08-02T01:57:31.041Z,0.00
2022-08-02T01:58:31.034Z,0.00
2022-08-02T01:59:31.032Z,0.00
2022-08-02T02:00:31.025Z,0.00
2022-08-02T02:01:31.058Z,0.00
2022-08-02T02:02:31.878Z,0.00
2022-08-02T02:03:31.011Z,0.00
2022-08-02T02:04:31.007Z,0.00
2022-08-02T02:05:31.002Z,0.00
2022-08-02T02:06:30.994Z,0.00
2022-08-02T02:07:30.991Z,0.00
2022-08-02T02:08:31.185Z,0.00
2022-08-02T02:09:30.979Z,0.00
2022-08-02T02:10:30.974Z,0.00
2022-08-02T02:12:14.714Z,0.00
2022-08-02T02:12:30.964Z,0.00
2022-08-02T02:13:33.677Z,0.00
2022-08-02T02:14:30.954Z,0.00
2022-08-02T02:15:30.950Z,0.00
2022-08-02T02:16:30.941Z,0.00
2022-08-02T02:17:53.160Z,0.00
2022-08-02T02:18:30.930Z,0.00
2022-08-02T02:19:30.929Z,0.00
2022-08-02T02:20:30.921Z,0.00
2022-08-02T02:21:31.384Z,0.00
2022-08-02T02:22:30.912Z,0.00
2022-08-02T02:23:35.476Z,0.00
2022-08-02T02:24:30.901Z,0.00
2022-08-02T02:25:35.773Z,0.00
2022-08-02T02:26:31.729Z,0.00
2022-08-02T02:27:30.887Z,0.00
2022-08-02T02:28:30.881Z,0.00
2022-08-02T02:29:30.876Z,0.00
2022-08-02T02:30:30.868Z,0.00
2022-08-02T02:31:30.868Z,0.00
2022-08-02T02:32:30.860Z,0.00
2022-08-02T02:33:30.856Z,0.00
2022-08-02T02:34:30.847Z,0.00
2022-08-02T02:35:30.846Z,0.00
2022-08-02T02:36:30.847Z,0.00
2022-08-02T02:37:30.835Z,0.00
2022-08-02T02:38:30.830Z,0.00
2022-08-02T02:39:30.875Z,0.00
2022-08-02T02:40:30.818Z,0.00
2022-08-02T02:41:30.814Z,0.00
2022-08-02T02:42:30.807Z,0.00
2022-08-02T02:43:30.803Z,0.00
2022-08-02T02:44:30.795Z,0.00
2022-08-02T02:45:30.794Z,0.00
2022-08-02T02:46:30.801Z,0.00
2022-08-02T02:47:41.541Z,0.00
2022-08-02T02:48:30.777Z,0.00
2022-08-02T02:49:30.884Z,0.00
2022-08-02T02:50:30.764Z,0.00
2022-08-02T02:51:30.764Z,0.00
2022-08-02T02:52:30.756Z,0.00
2022-08-02T02:53:30.755Z,0.00
2022-08-02T02:54:34.068Z,0.00
2022-08-02T02:55:30.742Z,0.00
2022-08-02T02:56:30.733Z,0.00
2022-08-02T02:57:30.732Z,0.00
2022-08-02T02:58:30.722Z,0.00
2022-08-02T02:59:30.720Z,0.00
2022-08-02T03:00:30.713Z,0.00
2022-08-02T03:01:55.780Z,0.00
2022-08-02T03:02:30.700Z,0.00
2022-08-02T03:03:30.697Z,0.00
2022-08-02T03:04:36.142Z,0.00
2022-08-02T03:05:30.685Z,0.00
2022-08-02T03:06:30.678Z,0.00
2022-08-02T03:07:30.674Z,0.00
2022-08-02T03:08:30.667Z,0.00
2022-08-02T03:09:30.664Z,0.00
2022-08-02T03:10:30.659Z,0.00
2022-08-02T03:11:30.652Z,0.00
2022-08-02T03:12:32.354Z,0.00
2022-08-02T03:13:33.035Z,0.00
2022-08-02T03:14:30.634Z,0.00
2022-08-02T03:15:30.630Z,0.00
2022-08-02T03:16:30.625Z,0.00
2022-08-02T03:17:30.620Z,0.00
2022-08-02T03:18:30.612Z,0.00
2022-08-02T03:19:33.213Z,0.00
2022-08-02T03:20:30.601Z,0.00
2022-08-02T03:21:30.597Z,0.00
2022-08-02T03:22:30.590Z,0.00
2022-08-02T03:23:30.585Z,0.00
2022-08-02T03:24:30.580Z,0.00
2022-08-02T03:25:30.576Z,0.00
2022-08-02T03:26:30.567Z,0.00
2022-08-02T03:27:30.566Z,0.00
2022-08-02T03:28:30.558Z,0.00
2022-08-02T03:29:34.456Z,0.00
2022-08-02T03:30:30.545Z,0.00
2022-08-02T03:31:32.802Z,4.00
2022-08-02T03:32:30.535Z,0.00
2022-08-02T03:33:30.530Z,0.00
2022-08-02T03:34:30.525Z,4.00
2022-08-02T03:35:30.519Z,0.00
2022-08-02T03:36:30.513Z,4.00
2022-08-02T03:37:30.508Z,4.00
2022-08-02T03:38:30.502Z,4.00
2022-08-02T03:39:30.499Z,4.00
2022-08-02T03:40:30.491Z,4.00
2022-08-02T03:41:30.487Z,8.00
2022-08-02T03:42:30.481Z,8.00
2022-08-02T03:43:30.475Z,8.00
2022-08-02T03:44:30.468Z,8.00
2022-08-02T03:45:30.464Z,12.00
2022-08-02T03:46:30.456Z,16.00
2022-08-02T03:47:30.452Z,20.00
2022-08-02T03:48:34.618Z,20.00
2022-08-02T03:49:30.524Z,24.00
2022-08-02T03:50:30.434Z,32.00
2022-08-02T03:51:30.431Z,32.00
2022-08-02T03:52:30.423Z,40.00
2022-08-02T03:53:30.419Z,48.00
2022-08-02T03:54:34.417Z,52.00
2022-08-02T03:55:30.408Z,56.00
2022-08-02T03:56:30.406Z,68.00
2022-08-02T03:57:30.396Z,76.00
2022-08-02T03:58:30.390Z,84.00
2022-08-02T03:59:31.976Z,92.00
2022-08-02T04:01:30.393Z,112.00
2022-08-02T04:02:30.374Z,120.00
2022-08-02T04:03:30.363Z,132.00
2022-08-02T04:04:30.358Z,144.00
2022-08-02T04:05:30.349Z,164.00
2022-08-02T04:06:30.348Z,184.00
2022-08-02T04:08:32.527Z,200.00
2022-08-02T04:08:35.615Z,216.00
2022-08-02T04:09:30.329Z,236.00
2022-08-02T04:10:30.324Z,256.00
2022-08-02T04:11:30.322Z,280.00
2022-08-02T04:12:30.316Z,304.00
2022-08-02T04:13:34.493Z,324.00
2022-08-02T04:14:30.302Z,352.00
2022-08-02T04:15:30.296Z,380.00
2022-08-02T04:16:30.293Z,404.00
2022-08-02T04:17:30.282Z,428.00
2022-08-02T04:18:30.280Z,452.00
2022-08-02T04:19:30.272Z,480.00
2022-08-02T04:20:30.273Z,504.00
2022-08-02T04:21:48.593Z,536.00
2022-08-02T04:22:30.257Z,564.00
2022-08-02T04:23:30.251Z,604.00
2022-08-02T04:24:30.245Z,648.00
2022-08-02T04:25:35.301Z,696.00
2022-08-02T04:26:30.234Z,732.00
2022-08-02T04:27:50.046Z,772.00
2022-08-02T04:28:30.224Z,816.00
2022-08-02T04:29:30.214Z,856.00
2022-08-02T04:30:30.211Z,900.00
2022-08-02T04:31:30.205Z,940.00
2022-08-02T04:32:30.200Z,984.00
2022-08-02T04:33:30.193Z,1024.00
2022-08-02T04:34:30.189Z,1064.00
2022-08-02T04:35:30.183Z,1100.00
2022-08-02T04:36:30.894Z,1144.00
2022-08-02T04:37:30.170Z,1196.00
2022-08-02T04:38:30.166Z,1252.00
2022-08-02T04:39:30.158Z,1300.00
2022-08-02T04:40:30.155Z,1344.00
2022-08-02T04:41:30.146Z,1420.00
2022-08-02T04:42:30.144Z,1496.00
2022-08-02T04:43:30.139Z,1568.00
2022-08-02T04:44:30.131Z,2052.00
2022-08-02T04:45:30.126Z,8272.00
2022-08-02T04:46:30.119Z,10848.00
2022-08-02T04:48:02.549Z,10496.00
2022-08-02T04:48:30.109Z,12672.00
2022-08-02T04:49:30.162Z,15488.00
2022-08-02T04:50:30.097Z,17056.00
2022-08-02T04:51:37.919Z,18656.00
2022-08-02T04:52:30.090Z,18752.00
2022-08-02T04:53:30.086Z,19232.00
2022-08-02T04:54:30.081Z,17888.00
2022-08-02T04:55:30.288Z,14560.00
2022-08-02T04:56:30.074Z,16064.00
2022-08-02T04:57:30.072Z,20640.00
2022-08-02T04:58:44.090Z,22912.00
2022-08-02T04:59:30.066Z,22976.00
2022-08-02T05:00:30.100Z,22976.00
2022-08-02T05:01:30.061Z,22720.00
2022-08-02T05:02:30.058Z,22560.00
2022-08-02T05:03:30.059Z,23040.00
2022-08-02T05:04:30.057Z,20768.00
2022-08-02T05:05:30.056Z,18816.00
2022-08-02T05:06:30.058Z,21504.00
2022-08-02T05:07:30.053Z,20288.00
2022-08-02T05:08:30.051Z,18048.00
2022-08-02T05:09:30.051Z,20736.00
2022-08-02T05:10:30.053Z,18880.00
2022-08-02T05:11:36.129Z,9284.00
2022-08-02T05:12:30.050Z,4260.00
2022-08-02T05:13:30.047Z,3984.00
2022-08-02T05:14:30.048Z,3776.00
2022-08-02T05:15:33.247Z,3836.00
2022-08-02T05:16:30.885Z,3800.00
2022-08-02T05:17:30.052Z,3804.00
2022-08-02T05:18:30.046Z,3928.00
2022-08-02T05:19:30.045Z,3980.00
2022-08-02T05:20:30.047Z,3868.00
2022-08-02T05:21:30.042Z,3984.00
2022-08-02T05:22:30.041Z,3936.00
2022-08-02T05:23:30.040Z,3828.00
2022-08-02T05:24:30.038Z,3808.00
2022-08-02T05:25:30.038Z,3800.00
2022-08-02T05:26:30.042Z,3300.00
2022-08-02T05:27:30.037Z,2712.00
2022-08-02T05:28:30.034Z,2644.00
2022-08-02T05:29:30.034Z,2780.00
2022-08-02T05:30:30.029Z,3644.00
2022-08-02T05:31:30.031Z,3848.00
2022-08-02T05:32:30.027Z,3864.00
2022-08-02T05:33:30.027Z,3856.00
2022-08-02T05:34:30.027Z,3880.00
2022-08-02T05:35:30.023Z,3936.00
2022-08-02T05:36:30.019Z,3956.00
2022-08-02T05:37:32.011Z,3972.00
2022-08-02T05:38:30.022Z,4000.00
2022-08-02T05:39:31.744Z,4020.00
2022-08-02T05:40:30.014Z,4036.00
2022-08-02T05:41:30.017Z,4056.00
2022-08-02T05:42:30.010Z,4060.00
2022-08-02T05:43:30.010Z,4068.00
2022-08-02T05:44:30.006Z,4088.00
2022-08-02T05:45:30.006Z,4104.00
2022-08-02T05:46:30.003Z,4120.00
2022-08-02T05:47:30.004Z,4124.00
2022-08-02T05:48:32.186Z,3976.00
2022-08-02T05:49:30.030Z,3596.00
2022-08-02T05:50:30.000Z,3828.00
2022-08-02T05:51:29.996Z,3824.00
2022-08-02T05:52:29.993Z,3700.00
2022-08-02T05:53:29.992Z,3400.00
2022-08-02T05:54:29.992Z,3320.00
2022-08-02T05:55:29.990Z,3056.00
2022-08-02T05:56:29.988Z,3108.00
2022-08-02T05:57:29.987Z,3044.00
2022-08-02T05:58:29.986Z,2952.00
2022-08-02T05:59:29.983Z,3060.00
2022-08-02T06:00:29.983Z,3224.00
2022-08-02T06:01:30.100Z,3396.00
2022-08-02T06:02:30.581Z,3316.00
2022-08-02T06:03:29.977Z,3244.00
2022-08-02T06:04:29.974Z,3304.00
2022-08-02T06:05:29.975Z,3404.00
2022-08-02T06:06:29.969Z,3452.00
2022-08-02T06:07:29.969Z,3444.00
2022-08-02T06:08:29.967Z,3508.00
2022-08-02T06:09:29.965Z,3660.00
2022-08-02T06:10:29.968Z,3884.00
2022-08-02T06:11:29.962Z,3820.00
2022-08-02T06:12:29.959Z,3876.00
2022-08-02T06:13:29.958Z,3892.00
2022-08-02T06:14:30.559Z,4012.00
2022-08-02T06:15:29.956Z,4036.00
2022-08-02T06:16:32.511Z,3920.00
2022-08-02T06:17:29.952Z,3348.00
2022-08-02T06:18:29.949Z,3368.00
2022-08-02T06:19:29.950Z,3380.00
2022-08-02T06:20:29.959Z,3576.00
2022-08-02T06:22:34.891Z,3520.00
2022-08-02T06:22:37.679Z,3360.00
2022-08-02T06:23:29.943Z,3136.00
2022-08-02T06:24:29.940Z,3224.00
2022-08-02T06:25:51.080Z,3188.00
2022-08-02T06:26:29.936Z,3140.00
2022-08-02T06:27:29.939Z,3084.00
2022-08-02T06:28:29.930Z,3088.00
2022-08-02T06:29:29.936Z,3124.00
2022-08-02T06:30:29.928Z,3316.00
2022-08-02T06:31:29.932Z,3540.00
2022-08-02T06:32:29.924Z,3516.00
2022-08-02T06:33:29.926Z,3736.00
2022-08-02T06:34:29.920Z,3608.00
2022-08-02T06:35:29.922Z,3588.00
2022-08-02T06:36:29.920Z,3328.00
2022-08-02T06:37:29.918Z,3028.00
2022-08-02T06:38:29.913Z,2820.00
2022-08-02T06:39:29.916Z,2884.00
2022-08-02T06:40:29.910Z,2848.00
2022-08-02T06:41:29.912Z,2828.00
2022-08-02T06:42:29.907Z,2860.00
2022-08-02T06:44:49.921Z,2696.00
2022-08-02T06:45:29.904Z,2492.00
2022-08-02T06:46:37.700Z,2364.00
2022-08-02T06:47:29.901Z,2328.00
2022-08-02T06:48:29.899Z,2328.00
2022-08-02T06:49:51.940Z,2396.00
2022-08-02T06:50:29.896Z,2516.00
2022-08-02T06:51:29.893Z,2616.00
2022-08-02T06:52:30.609Z,2788.00
2022-08-02T06:53:29.887Z,2892.00
2022-08-02T06:54:29.888Z,2944.00
2022-08-02T06:55:29.884Z,2976.00
2022-08-02T06:56:29.884Z,3200.00
2022-08-02T06:57:29.886Z,3252.00
2022-08-02T06:58:29.881Z,3328.00
2022-08-02T06:59:29.875Z,3404.00
2022-08-02T07:00:29.876Z,3348.00
2022-08-02T07:01:38.659Z,3080.00
2022-08-02T07:02:29.871Z,3108.00
2022-08-02T07:03:29.867Z,3184.00
2022-08-02T07:04:29.866Z,3352.00
2022-08-02T07:05:29.862Z,3464.00
2022-08-02T07:06:29.861Z,3372.00
2022-08-02T07:07:29.859Z,3288.00
2022-08-02T07:08:29.859Z,3180.00
2022-08-02T07:09:29.855Z,3028.00
2022-08-02T07:10:29.858Z,3100.00
2022-08-02T07:11:29.849Z,3148.00
2022-08-02T07:12:29.866Z,3156.00
2022-08-02T07:13:29.846Z,3132.00
2022-08-02T07:14:29.846Z,3124.00
2022-08-02T07:15:29.842Z,3052.00
2022-08-02T07:16:29.842Z,3132.00
2022-08-02T07:17:29.837Z,3072.00
2022-08-02T07:18:29.839Z,2876.00
2022-08-02T07:19:37.743Z,2768.00
2022-08-02T07:20:29.836Z,2824.00
2022-08-02T07:21:45.829Z,2804.00
2022-08-02T07:22:29.830Z,2656.00
2022-08-02T07:23:29.827Z,2684.00
2022-08-02T07:24:29.927Z,2676.00
2022-08-02T07:26:02.340Z,2672.00
2022-08-02T07:26:29.822Z,2576.00
2022-08-02T07:27:29.820Z,2556.00
2022-08-02T07:28:29.818Z,2616.00
2022-08-02T07:29:33.596Z,2632.00
2022-08-02T07:30:29.815Z,2632.00
2022-08-02T07:31:29.812Z,2612.00
2022-08-02T07:32:29.816Z,2596.00
2022-08-02T07:33:38.931Z,2528.00
2022-08-02T07:34:29.807Z,2460.00
2022-08-02T07:35:29.804Z,2428.00
2022-08-02T07:36:29.808Z,2428.00
2022-08-02T07:37:53.472Z,2420.00
2022-08-02T07:38:29.801Z,2396.00
2022-08-02T07:39:29.797Z,2364.00
2022-08-02T07:40:29.810Z,2388.00
2022-08-02T07:41:29.792Z,2424.00
2022-08-02T07:42:29.793Z,2400.00
2022-08-02T07:43:29.791Z,2444.00
2022-08-02T07:44:29.792Z,2428.00
2022-08-02T07:45:29.785Z,2424.00
2022-08-02T07:46:29.784Z,2432.00
2022-08-02T07:47:29.782Z,2436.00
2022-08-02T07:48:29.780Z,2428.00
2022-08-02T07:49:29.886Z,2416.00
2022-08-02T07:50:29.778Z,2408.00
2022-08-02T07:51:29.771Z,2404.00
2022-08-02T07:52:29.973Z,2388.00
2022-08-02T07:53:50.260Z,2380.00
2022-08-02T07:54:29.770Z,2372.00
2022-08-02T07:55:39.074Z,2364.00
2022-08-02T07:56:29.764Z,2356.00
2022-08-02T07:57:29.761Z,2344.00
2022-08-02T07:58:29.760Z,2344.00
2022-08-02T07:59:29.756Z,2324.00
2022-08-02T08:00:29.756Z,2324.00
2022-08-02T08:01:29.791Z,2328.00
2022-08-02T08:02:29.754Z,2328.00
2022-08-02T08:03:29.751Z,2332.00
2022-08-02T08:04:29.754Z,2332.00
2022-08-02T08:05:29.745Z,2328.00
2022-08-02T08:06:29.745Z,2328.00
2022-08-02T08:07:29.741Z,2332.00
2022-08-02T08:08:29.743Z,2336.00
2022-08-02T08:09:29.740Z,2340.00
2022-08-02T08:10:29.740Z,2340.00
2022-08-02T08:11:29.736Z,2340.00
2022-08-02T08:12:29.738Z,2348.00
2022-08-02T08:13:29.733Z,2352.00
2022-08-02T08:14:29.735Z,2364.00
2022-08-02T08:15:29.731Z,2380.00
2022-08-02T08:16:29.731Z,2396.00
2022-08-02T08:17:29.728Z,2412.00
2022-08-02T08:18:29.728Z,2436.00
2022-08-02T08:19:49.961Z,2440.00
2022-08-02T08:20:29.726Z,2448.00
2022-08-02T08:21:29.721Z,2456.00
2022-08-02T08:22:29.722Z,2472.00
2022-08-02T08:23:29.720Z,2484.00
2022-08-02T08:24:29.721Z,2472.00
2022-08-02T08:25:29.717Z,2364.00
2022-08-02T08:26:29.719Z,2464.00
2022-08-02T08:27:29.716Z,2512.00
2022-08-02T08:28:29.718Z,2556.00
2022-08-02T08:29:29.713Z,2580.00
2022-08-02T08:30:29.713Z,2624.00
2022-08-02T08:31:29.712Z,2664.00
2022-08-02T08:32:29.713Z,2676.00
2022-08-02T08:33:29.711Z,2696.00
2022-08-02T08:34:29.711Z,2712.00
2022-08-02T08:35:29.706Z,2712.00
2022-08-02T08:36:29.710Z,2708.00
2022-08-02T08:37:29.706Z,2704.00
2022-08-02T08:38:29.706Z,2704.00
2022-08-02T08:39:29.705Z,2700.00
2022-08-02T08:40:29.721Z,2696.00
2022-08-02T08:41:30.128Z,2704.00
2022-08-02T08:42:29.705Z,2716.00
2022-08-02T08:43:29.705Z,2728.00
2022-08-02T08:44:29.707Z,2748.00
2022-08-02T08:45:29.701Z,2768.00
2022-08-02T08:46:29.703Z,2788.00
2022-08-02T08:47:33.460Z,2808.00
2022-08-02T08:48:30.948Z,2820.00
2022-08-02T08:49:29.728Z,2816.00
2022-08-02T08:50:29.702Z,2792.00
2022-08-02T08:51:29.698Z,2772.00
2022-08-02T08:52:29.700Z,2744.00
2022-08-02T08:53:36.931Z,2472.00
2022-08-02T08:54:29.700Z,2376.00
2022-08-02T08:55:29.698Z,2508.00
2022-08-02T08:56:29.700Z,2616.00
2022-08-02T08:57:29.701Z,2728.00
2022-08-02T08:58:29.701Z,2740.00
2022-08-02T08:59:29.696Z,2748.00
2022-08-02T09:00:29.699Z,2768.00
2022-08-02T09:01:49.830Z,2776.00
2022-08-02T09:02:29.975Z,2768.00
2022-08-02T09:03:33.802Z,2756.00
2022-08-02T09:04:29.698Z,2728.00
2022-08-02T09:05:29.700Z,2752.00
2022-08-02T09:06:29.698Z,2724.00
2022-08-02T09:07:29.702Z,2752.00
2022-08-02T09:08:29.699Z,2756.00
2022-08-02T09:09:29.700Z,2748.00
2022-08-02T09:10:29.698Z,2740.00
2022-08-02T09:11:29.702Z,2756.00
2022-08-02T09:12:29.698Z,2788.00
2022-08-02T09:13:37.561Z,2780.00
2022-08-02T09:14:29.698Z,2708.00
2022-08-02T09:15:29.701Z,2680.00
2022-08-02T09:16:29.700Z,2700.00
2022-08-02T09:17:29.702Z,2644.00
2022-08-02T09:18:29.700Z,2536.00
2022-08-02T09:19:29.703Z,1824.00
2022-08-02T09:20:30.902Z,1828.00
2022-08-02T09:21:29.703Z,1576.00
2022-08-02T09:22:29.701Z,1552.00
2022-08-02T09:23:29.705Z,2012.00
2022-08-02T09:24:30.936Z,1588.00
2022-08-02T09:25:29.707Z,1368.00
2022-08-02T09:26:29.707Z,1388.00
2022-08-02T09:27:29.707Z,1544.00
2022-08-02T09:28:29.705Z,1500.00
2022-08-02T09:29:29.710Z,1268.00
2022-08-02T09:30:29.706Z,1496.00
2022-08-02T09:31:29.711Z,1908.00
2022-08-02T09:32:29.708Z,2072.00
2022-08-02T09:33:29.708Z,2080.00
2022-08-02T09:34:29.708Z,2116.00
2022-08-02T09:35:29.709Z,2156.00
2022-08-02T09:36:29.709Z,2212.00
2022-08-02T09:37:29.715Z,2240.00
2022-08-02T09:38:29.709Z,2240.00
2022-08-02T09:40:29.712Z,2244.00
2022-08-02T09:41:29.708Z,2244.00
2022-08-02T09:42:30.083Z,2244.00
2022-08-02T09:43:29.712Z,2240.00
2022-08-02T09:44:29.713Z,2248.00
2022-08-02T09:45:29.711Z,2240.00
2022-08-02T09:46:29.714Z,2228.00
2022-08-02T09:47:31.056Z,2232.00
2022-08-02T09:48:29.715Z,2240.00
2022-08-02T09:49:29.793Z,2244.00
2022-08-02T09:50:29.716Z,2244.00
2022-08-02T09:51:29.715Z,2244.00
2022-08-02T09:52:43.374Z,2252.00
2022-08-02T09:53:29.717Z,2248.00
2022-08-02T09:54:29.719Z,2248.00
2022-08-02T09:55:30.039Z,2244.00
2022-08-02T09:58:29.722Z,2252.00
2022-08-02T09:59:29.723Z,2260.00
2022-08-02T10:00:50.721Z,2264.00
2022-08-02T10:01:36.895Z,2252.00
2022-08-02T10:02:29.842Z,2236.00
2022-08-02T10:03:37.109Z,2244.00
2022-08-02T10:04:29.726Z,2256.00
2022-08-02T10:05:29.723Z,2232.00
2022-08-02T10:06:29.726Z,2268.00
2022-08-02T10:07:29.725Z,2268.00
2022-08-02T10:08:29.778Z,2264.00
2022-08-02T10:09:29.732Z,2276.00
2022-08-02T10:10:29.731Z,2284.00
2022-08-02T10:11:29.730Z,2292.00
2022-08-02T10:12:29.734Z,2300.00
2022-08-02T10:13:29.731Z,2300.00
2022-08-02T10:14:29.731Z,2308.00
2022-08-02T10:15:29.731Z,2292.00
2022-08-02T10:16:29.734Z,2300.00
2022-08-02T10:17:29.733Z,2328.00
2022-08-02T10:18:38.901Z,2340.00
2022-08-02T10:20:00.976Z,2372.00
2022-08-02T10:20:29.740Z,2392.00
2022-08-02T10:21:29.736Z,2384.00
2022-08-02T10:22:29.741Z,2316.00
2022-08-02T10:23:29.747Z,2352.00
2022-08-02T10:24:29.745Z,2348.00
2022-08-02T10:25:29.754Z,2164.00
2022-08-02T10:26:29.746Z,2132.00
2022-08-02T10:27:38.899Z,2240.00
2022-08-02T10:28:29.749Z,2384.00
2022-08-02T10:29:29.746Z,2416.00
2022-08-02T10:30:29.749Z,2420.00
2022-08-02T10:31:29.749Z,2448.00
2022-08-02T10:32:29.754Z,2460.00
2022-08-02T10:33:29.750Z,2476.00
2022-08-02T10:34:31.829Z,2484.00
2022-08-02T10:35:29.753Z,2484.00
2022-08-02T10:36:29.758Z,2508.00
2022-08-02T10:37:29.755Z,2532.00
2022-08-02T10:38:29.761Z,2544.00
2022-08-02T10:39:29.760Z,2600.00
2022-08-02T10:40:29.764Z,2636.00
2022-08-02T10:41:29.762Z,2288.00
2022-08-02T10:42:29.766Z,2024.00
2022-08-02T10:43:29.766Z,2092.00
2022-08-02T10:44:29.770Z,2252.00
2022-08-02T10:45:29.784Z,2524.00
2022-08-02T10:46:29.773Z,2528.00
2022-08-02T10:47:29.772Z,2520.00
2022-08-02T10:48:29.776Z,2524.00
2022-08-02T10:49:39.662Z,2548.00
2022-08-02T10:50:29.779Z,2584.00
2022-08-02T10:51:33.092Z,2628.00
2022-08-02T10:52:29.784Z,2704.00
2022-08-02T10:53:29.783Z,2736.00
2022-08-02T10:54:29.786Z,2784.00
2022-08-02T10:55:29.785Z,2816.00
2022-08-02T10:56:29.792Z,2876.00
2022-08-02T10:57:29.788Z,2904.00
2022-08-02T10:58:30.061Z,2892.00
2022-08-02T10:59:29.794Z,2868.00
2022-08-02T11:00:29.795Z,2824.00
2022-08-02T11:01:38.916Z,2760.00
2022-08-02T11:02:29.798Z,2736.00
2022-08-02T11:03:29.812Z,2760.00
2022-08-02T11:04:29.803Z,2780.00
2022-08-02T11:05:42.298Z,2792.00
2022-08-02T11:06:29.808Z,2772.00
2022-08-02T11:07:29.806Z,2752.00
2022-08-02T11:08:29.811Z,2736.00
2022-08-02T11:09:32.954Z,2736.00
2022-08-02T11:10:29.815Z,2756.00
2022-08-02T11:11:53.823Z,2748.00
2022-08-02T11:12:29.818Z,2732.00
2022-08-02T11:13:29.820Z,2688.00
2022-08-02T11:14:29.822Z,2676.00
2022-08-02T11:15:29.822Z,2684.00
2022-08-02T11:16:29.828Z,2688.00
2022-08-02T11:17:38.761Z,2676.00
2022-08-02T11:18:29.831Z,2684.00
2022-08-02T11:19:29.830Z,2704.00
2022-08-02T11:20:29.835Z,2748.00
2022-08-02T11:21:29.836Z,2764.00
2022-08-02T11:22:29.840Z,2700.00
2022-08-02T11:23:44.547Z,2688.00
2022-08-02T11:24:29.853Z,2680.00
2022-08-02T11:25:54.371Z,2700.00
2022-08-02T11:26:29.849Z,2728.00
2022-08-02T11:27:29.851Z,2764.00
2022-08-02T11:28:29.856Z,2780.00
2022-08-02T11:29:29.854Z,2780.00
2022-08-02T11:30:29.858Z,2748.00
2022-08-02T11:31:29.866Z,2764.00
2022-08-02T11:32:30.745Z,2768.00
2022-08-02T11:33:29.863Z,2748.00
2022-08-02T11:34:37.628Z,2812.00
2022-08-02T11:35:29.869Z,2860.00
2022-08-02T11:36:29.874Z,2888.00
2022-08-02T11:37:29.874Z,2904.00
2022-08-02T11:38:29.880Z,2916.00
2022-08-02T11:39:29.882Z,2904.00
2022-08-02T11:40:32.503Z,2916.00
2022-08-02T11:41:46.862Z,2952.00
2022-08-02T11:42:29.886Z,2952.00
2022-08-02T11:43:29.890Z,2936.00
2022-08-02T11:44:29.895Z,2908.00
2022-08-02T11:45:30.238Z,2936.00
2022-08-02T11:46:29.897Z,2952.00
2022-08-02T11:47:29.897Z,2996.00
2022-08-02T11:48:29.902Z,3032.00
2022-08-02T11:49:29.964Z,2968.00
2022-08-02T11:50:30.714Z,2868.00
2022-08-02T11:51:29.907Z,2864.00
2022-08-02T11:52:29.911Z,2836.00
2022-08-02T11:53:29.912Z,2856.00
2022-08-02T11:54:29.918Z,2856.00
2022-08-02T11:55:29.916Z,2868.00
2022-08-02T11:56:29.923Z,2872.00
2022-08-02T11:57:29.922Z,2888.00
2022-08-02T11:58:29.927Z,2896.00
2022-08-02T11:59:29.933Z,2912.00
2022-08-02T12:00:30.520Z,2920.00
2022-08-02T12:01:29.934Z,2896.00
2022-08-02T12:02:29.944Z,2884.00
2022-08-02T12:03:29.998Z,2896.00
2022-08-02T12:04:29.944Z,2976.00
2022-08-02T12:06:03.915Z,2908.00
2022-08-02T12:06:29.947Z,2948.00
2022-08-02T12:07:34.305Z,2904.00
2022-08-02T12:08:29.953Z,2900.00
2022-08-02T12:09:29.954Z,2892.00
2022-08-02T12:10:29.958Z,2828.00
2022-08-02T12:11:38.880Z,2892.00
2022-08-02T12:12:29.965Z,2964.00
2022-08-02T12:13:29.964Z,2988.00
2022-08-02T12:14:29.970Z,2992.00
2022-08-02T12:15:29.970Z,3016.00
2022-08-02T12:16:29.978Z,3016.00
2022-08-02T12:17:29.979Z,3004.00
2022-08-02T12:18:29.980Z,3028.00
2022-08-02T12:19:29.982Z,3028.00
2022-08-02T12:20:29.988Z,3052.00
2022-08-02T12:21:29.987Z,3072.00
2022-08-02T12:22:30.043Z,3064.00
2022-08-02T12:23:29.995Z,3056.00
2022-08-02T12:24:30.013Z,3044.00
2022-08-02T12:25:34.568Z,3016.00
2022-08-02T12:26:30.119Z,3008.00
2022-08-02T12:27:30.008Z,3028.00
2022-08-02T12:28:30.013Z,3028.00
2022-08-02T12:29:58.471Z,3056.00
2022-08-02T12:30:30.021Z,3060.00
2022-08-02T12:31:30.020Z,3020.00
2022-08-02T12:32:30.027Z,3000.00